sensor_id;sensor_type;location;lat;lon;timestamp;P1;durP1;ratioP1;P2;durP2;ratioP2
13927;SDS011;7036;50.834;4.718;2023-07-29T00:01:19;1.10;;;1.00;;
13927;SDS011;7036;50.834;4.718;2023-07-29T00:03:46;1.37;;;0.97;;
13927;SDS011;7036;50.834;4.718;2023-07-29T00:06:16;1.20;;;0.83;;
13927;SDS011;7036;50.834;4.718;2023-07-29T00:08:41;1.57;;;0.83;;
13927;SDS011;7036;50.834;4.718;2023-07-29T00:11:08;1.07;;;0.90;;
13927;SDS011;7036;50.834;4.718;2023-07-29T00:13:35;1.07;;;0.70;;
13927;SDS011;7036;50.834;4.718;2023-07-29T00:16:02;1.20;;;0.87;;
13927;SDS011;7036;50.834;4.718;2023-07-29T00:18:29;4.60;;;1.13;;
13927;SDS011;7036;50.834;4.718;2023-07-29T00:20:56;1.47;;;1.00;;
13927;SDS011;7036;50.834;4.718;2023-07-29T00:23:23;1.10;;;0.90;;
13927;SDS011;7036;50.834;4.718;2023-07-29T00:25:51;1.20;;;0.97;;
13927;SDS011;7036;50.834;4.718;2023-07-29T00:28:17;0.80;;;0.80;;
13927;SDS011;7036;50.834;4.718;2023-07-29T00:30:44;1.33;;;1.00;;
13927;SDS011;7036;50.834;4.718;2023-07-29T00:33:13;0.80;;;0.80;;
13927;SDS011;7036;50.834;4.718;2023-07-29T00:35:38;1.83;;;0.80;;
13927;SDS011;7036;50.834;4.718;2023-07-29T00:38:09;0.70;;;0.70;;
13927;SDS011;7036;50.834;4.718;2023-07-29T00:40:36;2.53;;;0.80;;
13927;SDS011;7036;50.834;4.718;2023-07-29T00:43:03;1.00;;;0.80;;
13927;SDS011;7036;50.834;4.718;2023-07-29T00:45:31;1.27;;;1.07;;
13927;SDS011;7036;50.834;4.718;2023-07-29T00:47:58;0.90;;;0.80;;
13927;SDS011;7036;50.834;4.718;2023-07-29T00:50:24;1.10;;;0.90;;
13927;SDS011;7036;50.834;4.718;2023-07-29T00:52:51;0.83;;;0.60;;
13927;SDS011;7036;50.834;4.718;2023-07-29T00:55:18;1.80;;;0.90;;
13927;SDS011;7036;50.834;4.718;2023-07-29T00:57:45;1.10;;;1.00;;
13927;SDS011;7036;50.834;4.718;2023-07-29T01:00:15;0.77;;;0.70;;
13927;SDS011;7036;50.834;4.718;2023-07-29T01:02:44;1.70;;;0.73;;
13927;SDS011;7036;50.834;4.718;2023-07-29T01:05:11;1.10;;;0.90;;
13927;SDS011;7036;50.834;4.718;2023-07-29T01:07:39;2.03;;;1.00;;
13927;SDS011;7036;50.834;4.718;2023-07-29T01:10:10;1.60;;;1.00;;
13927;SDS011;7036;50.834;4.718;2023-07-29T01:12:51;1.00;;;0.97;;
13927;SDS011;7036;50.834;4.718;2023-07-29T01:15:16;0.80;;;0.80;;
13927;SDS011;7036;50.834;4.718;2023-07-29T01:17:43;0.77;;;0.77;;
13927;SDS011;7036;50.834;4.718;2023-07-29T01:20:11;0.60;;;0.60;;
13927;SDS011;7036;50.834;4.718;2023-07-29T01:22:42;0.97;;;0.80;;
13927;SDS011;7036;50.834;4.718;2023-07-29T01:25:10;0.80;;;0.60;;
13927;SDS011;7036;50.834;4.718;2023-07-29T01:27:36;0.70;;;0.70;;
13927;SDS011;7036;50.834;4.718;2023-07-29T01:30:04;0.97;;;0.97;;
13927;SDS011;7036;50.834;4.718;2023-07-29T01:37:38;0.70;;;0.67;;
13927;SDS011;7036;50.834;4.718;2023-07-29T01:40:06;0.70;;;0.70;;
13927;SDS011;7036;50.834;4.718;2023-07-29T01:42:33;0.63;;;0.63;;
13927;SDS011;7036;50.834;4.718;2023-07-29T01:45:00;1.00;;;0.80;;
13927;SDS011;7036;50.834;4.718;2023-07-29T01:47:26;1.47;;;0.87;;
13927;SDS011;7036;50.834;4.718;2023-07-29T01:49:54;0.90;;;0.67;;
13927;SDS011;7036;50.834;4.718;2023-07-29T01:52:21;0.80;;;0.70;;
13927;SDS011;7036;50.834;4.718;2023-07-29T01:54:50;0.73;;;0.70;;
13927;SDS011;7036;50.834;4.718;2023-07-29T01:57:17;1.03;;;0.60;;
13927;SDS011;7036;50.834;4.718;2023-07-29T01:59:47;0.80;;;0.80;;
13927;SDS011;7036;50.834;4.718;2023-07-29T02:02:15;1.00;;;0.87;;
13927;SDS011;7036;50.834;4.718;2023-07-29T02:04:42;1.60;;;0.90;;
13927;SDS011;7036;50.834;4.718;2023-07-29T02:07:09;0.67;;;0.67;;
13927;SDS011;7036;50.834;4.718;2023-07-29T02:09:39;0.97;;;0.73;;
13927;SDS011;7036;50.834;4.718;2023-07-29T02:12:04;0.60;;;0.60;;
13927;SDS011;7036;50.834;4.718;2023-07-29T02:14:32;1.03;;;0.70;;
13927;SDS011;7036;50.834;4.718;2023-07-29T02:16:58;0.73;;;0.70;;
13927;SDS011;7036;50.834;4.718;2023-07-29T02:19:25;1.00;;;1.00;;
13927;SDS011;7036;50.834;4.718;2023-07-29T02:21:53;0.70;;;0.70;;
13927;SDS011;7036;50.834;4.718;2023-07-29T02:24:20;0.70;;;0.70;;
13927;SDS011;7036;50.834;4.718;2023-07-29T02:26:47;0.80;;;0.63;;
13927;SDS011;7036;50.834;4.718;2023-07-29T02:29:17;0.73;;;0.60;;
13927;SDS011;7036;50.834;4.718;2023-07-29T02:31:44;2.90;;;0.80;;
13927;SDS011;7036;50.834;4.718;2023-07-29T02:34:10;0.97;;;0.90;;
13927;SDS011;7036;50.834;4.718;2023-07-29T02:36:37;0.83;;;0.73;;
13927;SDS011;7036;50.834;4.718;2023-07-29T02:39:06;0.97;;;0.80;;
13927;SDS011;7036;50.834;4.718;2023-07-29T02:41:33;0.90;;;0.90;;
13927;SDS011;7036;50.834;4.718;2023-07-29T02:44:03;0.90;;;0.90;;
13927;SDS011;7036;50.834;4.718;2023-07-29T02:46:28;0.70;;;0.70;;
13927;SDS011;7036;50.834;4.718;2023-07-29T02:48:54;1.30;;;0.83;;
13927;SDS011;7036;50.834;4.718;2023-07-29T02:51:21;1.07;;;0.90;;
13927;SDS011;7036;50.834;4.718;2023-07-29T02:53:49;0.60;;;0.60;;
13927;SDS011;7036;50.834;4.718;2023-07-29T02:56:17;2.47;;;0.77;;
13927;SDS011;7036;50.834;4.718;2023-07-29T02:58:43;0.70;;;0.70;;
13927;SDS011;7036;50.834;4.718;2023-07-29T03:01:10;1.13;;;1.00;;
13927;SDS011;7036;50.834;4.718;2023-07-29T03:03:41;0.70;;;0.70;;
13927;SDS011;7036;50.834;4.718;2023-07-29T03:06:14;0.87;;;0.87;;
13927;SDS011;7036;50.834;4.718;2023-07-29T03:08:38;0.80;;;0.80;;
13927;SDS011;7036;50.834;4.718;2023-07-29T03:11:05;0.80;;;0.80;;
13927;SDS011;7036;50.834;4.718;2023-07-29T03:13:36;1.33;;;0.80;;
13927;SDS011;7036;50.834;4.718;2023-07-29T03:16:09;2.20;;;0.90;;
13927;SDS011;7036;50.834;4.718;2023-07-29T03:18:36;1.13;;;0.80;;
13927;SDS011;7036;50.834;4.718;2023-07-29T03:21:02;0.80;;;0.60;;
13927;SDS011;7036;50.834;4.718;2023-07-29T03:23:29;0.80;;;0.80;;
13927;SDS011;7036;50.834;4.718;2023-07-29T03:25:57;1.30;;;0.70;;
13927;SDS011;7036;50.834;4.718;2023-07-29T03:28:27;0.87;;;0.87;;
13927;SDS011;7036;50.834;4.718;2023-07-29T03:30:51;1.63;;;0.90;;
13927;SDS011;7036;50.834;4.718;2023-07-29T03:33:18;1.23;;;0.70;;
13927;SDS011;7036;50.834;4.718;2023-07-29T03:35:46;0.60;;;0.60;;
13927;SDS011;7036;50.834;4.718;2023-07-29T03:38:15;1.23;;;0.77;;
13927;SDS011;7036;50.834;4.718;2023-07-29T03:40:41;0.60;;;0.60;;
13927;SDS011;7036;50.834;4.718;2023-07-29T03:43:07;0.83;;;0.83;;
13927;SDS011;7036;50.834;4.718;2023-07-29T03:45:35;0.67;;;0.67;;
13927;SDS011;7036;50.834;4.718;2023-07-29T03:48:07;1.10;;;0.90;;
13927;SDS011;7036;50.834;4.718;2023-07-29T03:50:35;1.10;;;0.80;;
13927;SDS011;7036;50.834;4.718;2023-07-29T03:53:03;1.30;;;0.70;;
13927;SDS011;7036;50.834;4.718;2023-07-29T03:55:29;0.70;;;0.70;;
13927;SDS011;7036;50.834;4.718;2023-07-29T03:57:56;0.90;;;0.90;;
13927;SDS011;7036;50.834;4.718;2023-07-29T04:00:23;1.20;;;0.63;;
13927;SDS011;7036;50.834;4.718;2023-07-29T04:02:52;1.83;;;0.67;;
13927;SDS011;7036;50.834;4.718;2023-07-29T04:05:18;0.57;;;0.50;;
13927;SDS011;7036;50.834;4.718;2023-07-29T04:07:45;1.07;;;0.90;;
13927;SDS011;7036;50.834;4.718;2023-07-29T04:10:12;0.73;;;0.70;;
13927;SDS011;7036;50.834;4.718;2023-07-29T04:12:38;1.53;;;0.87;;
13927;SDS011;7036;50.834;4.718;2023-07-29T04:15:06;0.80;;;0.77;;
13927;SDS011;7036;50.834;4.718;2023-07-29T04:17:34;1.53;;;1.27;;
13927;SDS011;7036;50.834;4.718;2023-07-29T04:20:00;0.80;;;0.80;;
13927;SDS011;7036;50.834;4.718;2023-07-29T04:22:27;0.63;;;0.60;;
13927;SDS011;7036;50.834;4.718;2023-07-29T04:24:54;0.90;;;0.90;;
13927;SDS011;7036;50.834;4.718;2023-07-29T04:27:22;0.80;;;0.80;;
13927;SDS011;7036;50.834;4.718;2023-07-29T04:29:48;1.30;;;0.83;;
13927;SDS011;7036;50.834;4.718;2023-07-29T04:32:18;0.80;;;0.63;;
13927;SDS011;7036;50.834;4.718;2023-07-29T04:34:46;1.07;;;0.80;;
13927;SDS011;7036;50.834;4.718;2023-07-29T04:37:12;0.83;;;0.67;;
13927;SDS011;7036;50.834;4.718;2023-07-29T04:39:44;0.60;;;0.60;;
13927;SDS011;7036;50.834;4.718;2023-07-29T04:42:11;1.20;;;0.87;;
13927;SDS011;7036;50.834;4.718;2023-07-29T04:44:38;0.83;;;0.80;;
13927;SDS011;7036;50.834;4.718;2023-07-29T04:47:06;0.87;;;0.87;;
13927;SDS011;7036;50.834;4.718;2023-07-29T04:49:33;0.77;;;0.67;;
13927;SDS011;7036;50.834;4.718;2023-07-29T04:52:00;1.13;;;0.60;;
13927;SDS011;7036;50.834;4.718;2023-07-29T04:54:27;1.00;;;0.90;;
13927;SDS011;7036;50.834;4.718;2023-07-29T04:56:54;0.73;;;0.73;;
13927;SDS011;7036;50.834;4.718;2023-07-29T04:59:21;1.20;;;0.60;;
13927;SDS011;7036;50.834;4.718;2023-07-29T05:01:48;1.03;;;0.60;;
13927;SDS011;7036;50.834;4.718;2023-07-29T05:04:15;0.93;;;0.60;;
13927;SDS011;7036;50.834;4.718;2023-07-29T05:06:42;1.10;;;0.80;;
13927;SDS011;7036;50.834;4.718;2023-07-29T05:09:15;0.80;;;0.80;;
13927;SDS011;7036;50.834;4.718;2023-07-29T05:11:41;0.70;;;0.70;;
13927;SDS011;7036;50.834;4.718;2023-07-29T05:14:08;1.23;;;1.00;;
13927;SDS011;7036;50.834;4.718;2023-07-29T05:16:35;1.10;;;1.00;;
13927;SDS011;7036;50.834;4.718;2023-07-29T05:19:05;2.43;;;1.30;;
13927;SDS011;7036;50.834;4.718;2023-07-29T05:21:32;2.10;;;1.40;;
13927;SDS011;7036;50.834;4.718;2023-07-29T05:23:59;5.07;;;1.70;;
13927;SDS011;7036;50.834;4.718;2023-07-29T05:26:26;3.80;;;1.27;;
13927;SDS011;7036;50.834;4.718;2023-07-29T05:28:53;2.60;;;1.13;;
13927;SDS011;7036;50.834;4.718;2023-07-29T05:31:20;1.43;;;1.13;;
13927;SDS011;7036;50.834;4.718;2023-07-29T05:33:47;2.20;;;1.10;;
13927;SDS011;7036;50.834;4.718;2023-07-29T05:36:14;3.13;;;1.20;;
13927;SDS011;7036;50.834;4.718;2023-07-29T05:38:41;5.27;;;1.50;;
13927;SDS011;7036;50.834;4.718;2023-07-29T05:41:07;4.83;;;1.47;;
13927;SDS011;7036;50.834;4.718;2023-07-29T05:43:36;2.63;;;1.30;;
13927;SDS011;7036;50.834;4.718;2023-07-29T05:46:03;3.80;;;1.17;;
13927;SDS011;7036;50.834;4.718;2023-07-29T05:48:30;4.73;;;1.40;;
13927;SDS011;7036;50.834;4.718;2023-07-29T05:50:57;5.47;;;1.20;;
13927;SDS011;7036;50.834;4.718;2023-07-29T05:53:24;7.33;;;1.60;;
13927;SDS011;7036;50.834;4.718;2023-07-29T05:55:51;3.97;;;1.37;;
13927;SDS011;7036;50.834;4.718;2023-07-29T05:58:18;4.80;;;1.80;;
13927;SDS011;7036;50.834;4.718;2023-07-29T06:00:45;8.47;;;1.40;;
13927;SDS011;7036;50.834;4.718;2023-07-29T06:03:12;4.73;;;1.80;;
13927;SDS011;7036;50.834;4.718;2023-07-29T06:05:39;8.23;;;1.53;;
13927;SDS011;7036;50.834;4.718;2023-07-29T06:08:06;7.20;;;1.80;;
13927;SDS011;7036;50.834;4.718;2023-07-29T06:10:33;4.73;;;1.40;;
13927;SDS011;7036;50.834;4.718;2023-07-29T06:12:59;13.23;;;1.50;;
13927;SDS011;7036;50.834;4.718;2023-07-29T06:15:28;8.83;;;2.07;;
13927;SDS011;7036;50.834;4.718;2023-07-29T06:17:54;6.83;;;1.93;;
13927;SDS011;7036;50.834;4.718;2023-07-29T06:20:21;8.30;;;2.53;;
13927;SDS011;7036;50.834;4.718;2023-07-29T06:22:50;6.50;;;1.30;;
13927;SDS011;7036;50.834;4.718;2023-07-29T06:25:17;6.60;;;1.80;;
13927;SDS011;7036;50.834;4.718;2023-07-29T06:27:44;9.37;;;2.20;;
13927;SDS011;7036;50.834;4.718;2023-07-29T06:30:12;8.70;;;2.13;;
13927;SDS011;7036;50.834;4.718;2023-07-29T06:32:39;6.10;;;1.97;;
13927;SDS011;7036;50.834;4.718;2023-07-29T06:35:06;10.70;;;1.90;;
13927;SDS011;7036;50.834;4.718;2023-07-29T06:37:33;6.90;;;1.97;;
13927;SDS011;7036;50.834;4.718;2023-07-29T06:40:00;11.77;;;2.13;;
13927;SDS011;7036;50.834;4.718;2023-07-29T06:42:27;16.37;;;2.67;;
13927;SDS011;7036;50.834;4.718;2023-07-29T06:44:54;10.80;;;2.23;;
13927;SDS011;7036;50.834;4.718;2023-07-29T06:47:21;8.30;;;2.00;;
13927;SDS011;7036;50.834;4.718;2023-07-29T06:49:48;9.73;;;1.83;;
13927;SDS011;7036;50.834;4.718;2023-07-29T06:52:16;9.97;;;2.23;;
13927;SDS011;7036;50.834;4.718;2023-07-29T06:54:42;14.00;;;2.30;;
13927;SDS011;7036;50.834;4.718;2023-07-29T06:57:09;9.77;;;1.63;;
13927;SDS011;7036;50.834;4.718;2023-07-29T06:59:36;12.10;;;2.20;;
13927;SDS011;7036;50.834;4.718;2023-07-29T07:02:03;15.33;;;3.13;;
13927;SDS011;7036;50.834;4.718;2023-07-29T07:04:31;12.37;;;3.00;;
13927;SDS011;7036;50.834;4.718;2023-07-29T07:06:58;12.13;;;3.10;;
13927;SDS011;7036;50.834;4.718;2023-07-29T07:09:25;17.13;;;3.53;;
13927;SDS011;7036;50.834;4.718;2023-07-29T07:11:52;24.33;;;3.30;;
13927;SDS011;7036;50.834;4.718;2023-07-29T07:14:19;12.37;;;2.50;;
13927;SDS011;7036;50.834;4.718;2023-07-29T07:16:46;12.30;;;2.60;;
13927;SDS011;7036;50.834;4.718;2023-07-29T07:19:13;14.17;;;2.67;;
13927;SDS011;7036;50.834;4.718;2023-07-29T07:21:40;11.63;;;2.23;;
13927;SDS011;7036;50.834;4.718;2023-07-29T07:24:06;13.13;;;2.90;;
13927;SDS011;7036;50.834;4.718;2023-07-29T07:26:34;10.65;;;2.20;;
13927;SDS011;7036;50.834;4.718;2023-07-29T07:29:01;10.73;;;2.27;;
13927;SDS011;7036;50.834;4.718;2023-07-29T07:31:28;11.33;;;2.30;;
13927;SDS011;7036;50.834;4.718;2023-07-29T07:33:55;4.63;;;1.83;;
13927;SDS011;7036;50.834;4.718;2023-07-29T07:36:21;10.37;;;1.90;;
13927;SDS011;7036;50.834;4.718;2023-07-29T07:38:48;6.03;;;2.33;;
13927;SDS011;7036;50.834;4.718;2023-07-29T07:41:15;16.43;;;2.60;;
13927;SDS011;7036;50.834;4.718;2023-07-29T07:43:42;4.90;;;1.77;;
13927;SDS011;7036;50.834;4.718;2023-07-29T07:46:09;3.57;;;1.60;;
13927;SDS011;7036;50.834;4.718;2023-07-29T07:48:36;13.70;;;2.13;;
13927;SDS011;7036;50.834;4.718;2023-07-29T07:51:10;13.80;;;2.90;;
13927;SDS011;7036;50.834;4.718;2023-07-29T07:53:36;12.87;;;3.10;;
13927;SDS011;7036;50.834;4.718;2023-07-29T07:56:03;17.60;;;2.63;;
13927;SDS011;7036;50.834;4.718;2023-07-29T07:58:30;22.37;;;3.80;;
13927;SDS011;7036;50.834;4.718;2023-07-29T08:01:03;23.40;;;3.20;;
13927;SDS011;7036;50.834;4.718;2023-07-29T08:03:33;17.10;;;3.43;;
13927;SDS011;7036;50.834;4.718;2023-07-29T08:06:00;27.53;;;3.90;;
13927;SDS011;7036;50.834;4.718;2023-07-29T08:08:26;29.20;;;3.60;;
13927;SDS011;7036;50.834;4.718;2023-07-29T08:10:54;26.90;;;4.13;;
13927;SDS011;7036;50.834;4.718;2023-07-29T08:13:21;27.73;;;4.27;;
13927;SDS011;7036;50.834;4.718;2023-07-29T08:15:48;17.60;;;4.07;;
13927;SDS011;7036;50.834;4.718;2023-07-29T08:18:14;16.13;;;3.07;;
13927;SDS011;7036;50.834;4.718;2023-07-29T08:20:41;12.13;;;2.73;;
13927;SDS011;7036;50.834;4.718;2023-07-29T08:23:08;15.73;;;2.97;;
13927;SDS011;7036;50.834;4.718;2023-07-29T08:25:35;9.43;;;2.57;;
13927;SDS011;7036;50.834;4.718;2023-07-29T08:28:02;21.33;;;2.80;;
13927;SDS011;7036;50.834;4.718;2023-07-29T08:30:29;18.00;;;3.10;;
13927;SDS011;7036;50.834;4.718;2023-07-29T08:32:56;14.60;;;3.17;;
13927;SDS011;7036;50.834;4.718;2023-07-29T08:35:23;28.67;;;3.80;;
13927;SDS011;7036;50.834;4.718;2023-07-29T08:37:50;10.83;;;3.40;;
13927;SDS011;7036;50.834;4.718;2023-07-29T08:40:17;8.07;;;2.57;;
13927;SDS011;7036;50.834;4.718;2023-07-29T08:42:44;16.63;;;3.90;;
13927;SDS011;7036;50.834;4.718;2023-07-29T08:45:10;24.87;;;3.70;;
13927;SDS011;7036;50.834;4.718;2023-07-29T08:47:37;16.20;;;2.90;;
13927;SDS011;7036;50.834;4.718;2023-07-29T08:50:04;13.97;;;3.10;;
13927;SDS011;7036;50.834;4.718;2023-07-29T08:52:32;9.93;;;2.10;;
13927;SDS011;7036;50.834;4.718;2023-07-29T08:54:59;13.43;;;3.40;;
13927;SDS011;7036;50.834;4.718;2023-07-29T08:57:26;12.67;;;3.47;;
13927;SDS011;7036;50.834;4.718;2023-07-29T08:59:54;10.60;;;2.70;;
13927;SDS011;7036;50.834;4.718;2023-07-29T09:02:20;10.40;;;3.23;;
13927;SDS011;7036;50.834;4.718;2023-07-29T09:04:47;11.93;;;2.90;;
13927;SDS011;7036;50.834;4.718;2023-07-29T09:07:14;10.75;;;2.60;;
13927;SDS011;7036;50.834;4.718;2023-07-29T09:09:41;9.53;;;2.70;;
13927;SDS011;7036;50.834;4.718;2023-07-29T09:12:08;14.73;;;3.20;;
13927;SDS011;7036;50.834;4.718;2023-07-29T09:14:36;11.33;;;2.73;;
13927;SDS011;7036;50.834;4.718;2023-07-29T09:17:06;15.20;;;2.63;;
13927;SDS011;7036;50.834;4.718;2023-07-29T09:19:32;12.47;;;2.80;;
13927;SDS011;7036;50.834;4.718;2023-07-29T09:21:58;9.27;;;2.63;;
13927;SDS011;7036;50.834;4.718;2023-07-29T09:24:24;5.67;;;2.00;;
13927;SDS011;7036;50.834;4.718;2023-07-29T09:26:51;11.10;;;2.37;;
13927;SDS011;7036;50.834;4.718;2023-07-29T09:29:21;14.77;;;2.50;;
13927;SDS011;7036;50.834;4.718;2023-07-29T09:31:45;5.97;;;2.07;;
13927;SDS011;7036;50.834;4.718;2023-07-29T09:34:12;12.87;;;2.20;;
13927;SDS011;7036;50.834;4.718;2023-07-29T09:36:39;6.57;;;2.10;;
13927;SDS011;7036;50.834;4.718;2023-07-29T09:39:10;4.80;;;1.77;;
13927;SDS011;7036;50.834;4.718;2023-07-29T09:41:33;7.17;;;1.93;;
13927;SDS011;7036;50.834;4.718;2023-07-29T09:44:02;6.53;;;2.00;;
13927;SDS011;7036;50.834;4.718;2023-07-29T09:46:34;5.47;;;1.87;;
13927;SDS011;7036;50.834;4.718;2023-07-29T09:49:00;3.27;;;1.67;;
13927;SDS011;7036;50.834;4.718;2023-07-29T09:51:26;10.20;;;2.27;;
13927;SDS011;7036;50.834;4.718;2023-07-29T09:53:53;5.30;;;1.80;;
13927;SDS011;7036;50.834;4.718;2023-07-29T09:56:24;6.17;;;1.70;;
13927;SDS011;7036;50.834;4.718;2023-07-29T09:58:47;6.53;;;1.90;;
13927;SDS011;7036;50.834;4.718;2023-07-29T10:01:15;4.93;;;1.70;;
13927;SDS011;7036;50.834;4.718;2023-07-29T10:03:50;7.00;;;1.97;;
13927;SDS011;7036;50.834;4.718;2023-07-29T10:06:18;5.10;;;1.70;;
13927;SDS011;7036;50.834;4.718;2023-07-29T10:08:47;1.87;;;1.33;;
13927;SDS011;7036;50.834;4.718;2023-07-29T10:11:20;4.23;;;1.63;;
13927;SDS011;7036;50.834;4.718;2023-07-29T10:13:48;6.10;;;1.50;;
13927;SDS011;7036;50.834;4.718;2023-07-29T10:16:15;2.43;;;1.40;;
13927;SDS011;7036;50.834;4.718;2023-07-29T10:18:42;4.17;;;1.67;;
13927;SDS011;7036;50.834;4.718;2023-07-29T10:21:11;3.40;;;1.70;;
13927;SDS011;7036;50.834;4.718;2023-07-29T10:23:38;4.00;;;1.77;;
13927;SDS011;7036;50.834;4.718;2023-07-29T10:26:09;2.43;;;1.47;;
13927;SDS011;7036;50.834;4.718;2023-07-29T10:28:41;2.23;;;1.50;;
13927;SDS011;7036;50.834;4.718;2023-07-29T10:31:07;3.73;;;1.80;;
13927;SDS011;7036;50.834;4.718;2023-07-29T10:33:36;3.13;;;2.20;;
13927;SDS011;7036;50.834;4.718;2023-07-29T10:36:04;2.63;;;1.63;;
13927;SDS011;7036;50.834;4.718;2023-07-29T10:38:30;3.40;;;1.60;;
13927;SDS011;7036;50.834;4.718;2023-07-29T10:40:58;3.40;;;1.97;;
13927;SDS011;7036;50.834;4.718;2023-07-29T10:43:27;5.13;;;2.10;;
13927;SDS011;7036;50.834;4.718;2023-07-29T10:45:54;4.00;;;1.77;;
13927;SDS011;7036;50.834;4.718;2023-07-29T10:53:57;3.50;;;1.57;;
13927;SDS011;7036;50.834;4.718;2023-07-29T10:56:32;2.93;;;1.80;;
13927;SDS011;7036;50.834;4.718;2023-07-29T10:59:53;4.03;;;1.97;;
13927;SDS011;7036;50.834;4.718;2023-07-29T11:01:56;3.97;;;2.03;;
13927;SDS011;7036;50.834;4.718;2023-07-29T11:07:24;4.20;;;1.70;;
13927;SDS011;7036;50.834;4.718;2023-07-29T11:12:34;3.07;;;1.80;;
13927;SDS011;7036;50.834;4.718;2023-07-29T11:17:46;2.27;;;1.83;;
13927;SDS011;7036;50.834;4.718;2023-07-29T11:20:09;3.13;;;1.80;;
13927;SDS011;7036;50.834;4.718;2023-07-29T11:22:36;2.50;;;1.83;;
13927;SDS011;7036;50.834;4.718;2023-07-29T11:25:12;4.60;;;2.10;;
13927;SDS011;7036;50.834;4.718;2023-07-29T11:27:39;4.87;;;1.97;;
13927;SDS011;7036;50.834;4.718;2023-07-29T11:30:12;5.03;;;1.90;;
13927;SDS011;7036;50.834;4.718;2023-07-29T11:32:39;5.73;;;2.10;;
13927;SDS011;7036;50.834;4.718;2023-07-29T11:35:10;4.77;;;2.40;;
13927;SDS011;7036;50.834;4.718;2023-07-29T11:37:36;5.00;;;2.70;;
13927;SDS011;7036;50.834;4.718;2023-07-29T11:40:03;3.40;;;1.90;;
13927;SDS011;7036;50.834;4.718;2023-07-29T11:42:33;10.07;;;2.20;;
13927;SDS011;7036;50.834;4.718;2023-07-29T11:45:00;7.00;;;2.90;;
13927;SDS011;7036;50.834;4.718;2023-07-29T11:47:28;3.87;;;2.07;;
13927;SDS011;7036;50.834;4.718;2023-07-29T11:49:58;6.73;;;2.17;;
13927;SDS011;7036;50.834;4.718;2023-07-29T11:52:24;6.37;;;2.37;;
13927;SDS011;7036;50.834;4.718;2023-07-29T11:54:51;5.67;;;2.17;;
13927;SDS011;7036;50.834;4.718;2023-07-29T11:57:18;7.93;;;2.13;;
13927;SDS011;7036;50.834;4.718;2023-07-29T11:59:45;6.77;;;1.83;;
13927;SDS011;7036;50.834;4.718;2023-07-29T12:02:13;4.97;;;2.33;;
13927;SDS011;7036;50.834;4.718;2023-07-29T12:04:39;4.70;;;2.27;;
13927;SDS011;7036;50.834;4.718;2023-07-29T12:07:06;4.80;;;2.20;;
13927;SDS011;7036;50.834;4.718;2023-07-29T12:09:33;4.00;;;1.87;;
13927;SDS011;7036;50.834;4.718;2023-07-29T12:12:04;7.33;;;2.23;;
13927;SDS011;7036;50.834;4.718;2023-07-29T12:14:31;6.73;;;2.27;;
13927;SDS011;7036;50.834;4.718;2023-07-29T12:17:06;4.73;;;2.17;;
13927;SDS011;7036;50.834;4.718;2023-07-29T12:19:34;15.80;;;3.93;;
13927;SDS011;7036;50.834;4.718;2023-07-29T12:22:03;14.50;;;3.03;;
13927;SDS011;7036;50.834;4.718;2023-07-29T12:24:30;6.77;;;2.83;;
13927;SDS011;7036;50.834;4.718;2023-07-29T12:26:57;11.60;;;3.20;;
13927;SDS011;7036;50.834;4.718;2023-07-29T12:29:24;5.40;;;2.30;;
13927;SDS011;7036;50.834;4.718;2023-07-29T12:31:58;11.53;;;2.93;;
13927;SDS011;7036;50.834;4.718;2023-07-29T12:34:24;14.10;;;3.50;;
13927;SDS011;7036;50.834;4.718;2023-07-29T12:36:51;10.37;;;2.97;;
13927;SDS011;7036;50.834;4.718;2023-07-29T12:39:18;11.47;;;3.10;;
13927;SDS011;7036;50.834;4.718;2023-07-29T12:41:47;8.20;;;2.73;;
13927;SDS011;7036;50.834;4.718;2023-07-29T12:44:14;16.13;;;3.73;;
13927;SDS011;7036;50.834;4.718;2023-07-29T12:46:41;14.73;;;3.60;;
13927;SDS011;7036;50.834;4.718;2023-07-29T12:49:08;11.97;;;3.30;;
13927;SDS011;7036;50.834;4.718;2023-07-29T12:51:34;12.83;;;3.43;;
13927;SDS011;7036;50.834;4.718;2023-07-29T12:54:02;12.07;;;2.87;;
13927;SDS011;7036;50.834;4.718;2023-07-29T12:56:28;15.90;;;3.30;;
13927;SDS011;7036;50.834;4.718;2023-07-29T12:58:55;17.83;;;3.53;;
13927;SDS011;7036;50.834;4.718;2023-07-29T13:01:23;13.70;;;3.23;;
13927;SDS011;7036;50.834;4.718;2023-07-29T13:03:50;17.90;;;3.77;;
13927;SDS011;7036;50.834;4.718;2023-07-29T13:06:17;33.07;;;4.33;;
13927;SDS011;7036;50.834;4.718;2023-07-29T13:08:44;19.63;;;4.20;;
13927;SDS011;7036;50.834;4.718;2023-07-29T13:11:11;20.90;;;4.50;;
13927;SDS011;7036;50.834;4.718;2023-07-29T13:13:38;22.90;;;4.63;;
13927;SDS011;7036;50.834;4.718;2023-07-29T13:16:05;8.17;;;3.50;;
13927;SDS011;7036;50.834;4.718;2023-07-29T13:18:32;16.37;;;3.67;;
13927;SDS011;7036;50.834;4.718;2023-07-29T13:20:58;12.60;;;3.33;;
13927;SDS011;7036;50.834;4.718;2023-07-29T13:23:25;12.43;;;3.40;;
13927;SDS011;7036;50.834;4.718;2023-07-29T13:25:52;9.30;;;2.70;;
13927;SDS011;7036;50.834;4.718;2023-07-29T13:28:19;13.30;;;2.80;;
13927;SDS011;7036;50.834;4.718;2023-07-29T13:30:46;9.90;;;3.20;;
13927;SDS011;7036;50.834;4.718;2023-07-29T13:33:13;14.07;;;3.63;;
13927;SDS011;7036;50.834;4.718;2023-07-29T13:35:40;12.20;;;3.43;;
13927;SDS011;7036;50.834;4.718;2023-07-29T13:38:07;11.43;;;3.20;;
13927;SDS011;7036;50.834;4.718;2023-07-29T13:40:34;20.57;;;3.13;;
13927;SDS011;7036;50.834;4.718;2023-07-29T13:43:01;17.13;;;3.47;;
13927;SDS011;7036;50.834;4.718;2023-07-29T13:45:28;16.00;;;3.20;;
13927;SDS011;7036;50.834;4.718;2023-07-29T13:47:54;13.50;;;3.70;;
13927;SDS011;7036;50.834;4.718;2023-07-29T13:50:21;21.37;;;5.47;;
13927;SDS011;7036;50.834;4.718;2023-07-29T13:52:48;23.27;;;3.53;;
13927;SDS011;7036;50.834;4.718;2023-07-29T13:55:15;12.13;;;2.90;;
13927;SDS011;7036;50.834;4.718;2023-07-29T13:57:42;22.67;;;3.70;;
13927;SDS011;7036;50.834;4.718;2023-07-29T14:00:09;15.93;;;3.30;;
13927;SDS011;7036;50.834;4.718;2023-07-29T14:02:36;15.13;;;2.90;;
13927;SDS011;7036;50.834;4.718;2023-07-29T14:05:03;14.33;;;3.43;;
13927;SDS011;7036;50.834;4.718;2023-07-29T14:07:30;14.33;;;3.23;;
13927;SDS011;7036;50.834;4.718;2023-07-29T14:09:57;9.37;;;2.93;;
13927;SDS011;7036;50.834;4.718;2023-07-29T14:12:24;12.43;;;3.07;;
13927;SDS011;7036;50.834;4.718;2023-07-29T14:14:52;19.30;;;3.67;;
13927;SDS011;7036;50.834;4.718;2023-07-29T14:17:18;16.07;;;3.73;;
13927;SDS011;7036;50.834;4.718;2023-07-29T14:19:45;15.30;;;3.27;;
13927;SDS011;7036;50.834;4.718;2023-07-29T14:22:12;15.50;;;4.03;;
13927;SDS011;7036;50.834;4.718;2023-07-29T14:24:39;26.93;;;3.43;;
13927;SDS011;7036;50.834;4.718;2023-07-29T14:27:13;8.87;;;3.57;;
13927;SDS011;7036;50.834;4.718;2023-07-29T14:29:40;13.23;;;3.27;;
13927;SDS011;7036;50.834;4.718;2023-07-29T14:32:06;20.13;;;3.80;;
13927;SDS011;7036;50.834;4.718;2023-07-29T14:34:33;14.00;;;3.20;;
13927;SDS011;7036;50.834;4.718;2023-07-29T14:37:00;19.30;;;3.87;;
13927;SDS011;7036;50.834;4.718;2023-07-29T14:39:27;16.13;;;2.80;;
13927;SDS011;7036;50.834;4.718;2023-07-29T14:41:54;15.03;;;3.53;;
13927;SDS011;7036;50.834;4.718;2023-07-29T14:44:21;13.63;;;3.43;;
13927;SDS011;7036;50.834;4.718;2023-07-29T14:46:48;11.97;;;2.57;;
13927;SDS011;7036;50.834;4.718;2023-07-29T14:49:15;20.43;;;3.57;;
13927;SDS011;7036;50.834;4.718;2023-07-29T14:51:43;21.77;;;3.33;;
13927;SDS011;7036;50.834;4.718;2023-07-29T14:54:10;13.53;;;2.83;;
13927;SDS011;7036;50.834;4.718;2023-07-29T14:56:37;13.67;;;3.13;;
13927;SDS011;7036;50.834;4.718;2023-07-29T14:59:04;8.07;;;3.13;;
13927;SDS011;7036;50.834;4.718;2023-07-29T15:01:31;10.70;;;2.70;;
13927;SDS011;7036;50.834;4.718;2023-07-29T15:03:58;11.93;;;2.60;;
13927;SDS011;7036;50.834;4.718;2023-07-29T15:06:25;12.03;;;2.30;;
13927;SDS011;7036;50.834;4.718;2023-07-29T15:08:53;4.53;;;1.57;;
13927;SDS011;7036;50.834;4.718;2023-07-29T15:11:20;4.97;;;2.50;;
13927;SDS011;7036;50.834;4.718;2023-07-29T15:13:50;5.37;;;2.10;;
13927;SDS011;7036;50.834;4.718;2023-07-29T15:16:13;2.57;;;2.00;;
13927;SDS011;7036;50.834;4.718;2023-07-29T15:18:42;7.33;;;1.60;;